JMO weather

Jomsom Airport
Jomsom, Dhawalagiri, Nepal

Public forecast

Using degrees Celsius for public forecast. Weather courtesy of forecast.io.

Closest aviation weather report (METAR) to Jomsom Airport

Closest report is Tribhuvan International Airport, 108.3 nm (200.5 km) SE. Retrieved 2020/01/21 01:20 UTC (18 minutes ago):

VNKT 210120Z 09003KT 2000 BR FEW010 BKN250 03/03 Q1021 NOSIG

Closest aviation forecast (TAF) to Jomsom Airport

Closest forecast is Tribhuvan International Airport, 108.3 nm (200.5 km) SE. Retrieved 2020-01-21 00:42 UTC (56 minutes ago):

TAF TAF VNKT 202300Z 2100/2124 VRB02KT 3000 BR FEW010 SCT025 BKN100 PROB40 2101/2103 1000 BR BECMG 2104/2105 13004KT 4000 HZ FEW010 SCT025 BKN100 BECMG 2107/2109 26008KT 6000 FEW015 SCT025 BKN100 PROB40 2108/2112 28005KT 3000 -RA FEW025CB BECMG 2114/2115 25004KT 5000 BR FEW015 SCT025 BKN100